sensor_id;sensor_type;location;lat;lon;timestamp;P1;durP1;ratioP1;P2;durP2;ratioP2
11238;SDS011;5677;48.488;13.436;2023-06-04T00:02:13;3.80;;;2.07;;
11238;SDS011;5677;48.488;13.436;2023-06-04T00:04:41;2.47;;;1.70;;
11238;SDS011;5677;48.488;13.436;2023-06-04T00:07:08;3.07;;;1.63;;
11238;SDS011;5677;48.488;13.436;2023-06-04T00:09:35;2.07;;;1.50;;
11238;SDS011;5677;48.488;13.436;2023-06-04T00:12:01;2.13;;;1.70;;
11238;SDS011;5677;48.488;13.436;2023-06-04T00:14:28;1.77;;;1.67;;
11238;SDS011;5677;48.488;13.436;2023-06-04T00:16:55;2.03;;;1.57;;
11238;SDS011;5677;48.488;13.436;2023-06-04T00:19:22;3.20;;;1.60;;
11238;SDS011;5677;48.488;13.436;2023-06-04T00:21:50;2.47;;;1.57;;
11238;SDS011;5677;48.488;13.436;2023-06-04T00:24:17;3.10;;;1.70;;
11238;SDS011;5677;48.488;13.436;2023-06-04T00:26:44;2.17;;;1.93;;
11238;SDS011;5677;48.488;13.436;2023-06-04T00:29:10;2.13;;;1.33;;
11238;SDS011;5677;48.488;13.436;2023-06-04T00:31:37;2.87;;;1.63;;
11238;SDS011;5677;48.488;13.436;2023-06-04T00:34:04;3.10;;;1.57;;
11238;SDS011;5677;48.488;13.436;2023-06-04T00:36:31;2.17;;;1.63;;
11238;SDS011;5677;48.488;13.436;2023-06-04T00:38:59;2.10;;;1.47;;
11238;SDS011;5677;48.488;13.436;2023-06-04T00:41:25;1.40;;;1.30;;
11238;SDS011;5677;48.488;13.436;2023-06-04T00:43:52;4.20;;;1.40;;
11238;SDS011;5677;48.488;13.436;2023-06-04T00:46:21;2.40;;;1.60;;
11238;SDS011;5677;48.488;13.436;2023-06-04T00:48:50;3.37;;;1.63;;
11238;SDS011;5677;48.488;13.436;2023-06-04T00:51:17;2.77;;;1.70;;
11238;SDS011;5677;48.488;13.436;2023-06-04T00:53:45;2.03;;;1.83;;
11238;SDS011;5677;48.488;13.436;2023-06-04T00:56:13;2.70;;;1.50;;
11238;SDS011;5677;48.488;13.436;2023-06-04T00:58:40;2.40;;;1.60;;
11238;SDS011;5677;48.488;13.436;2023-06-04T01:01:10;3.97;;;1.67;;
11238;SDS011;5677;48.488;13.436;2023-06-04T01:03:45;2.17;;;1.50;;
11238;SDS011;5677;48.488;13.436;2023-06-04T01:06:15;3.77;;;1.73;;
11238;SDS011;5677;48.488;13.436;2023-06-04T01:08:48;2.07;;;1.70;;
11238;SDS011;5677;48.488;13.436;2023-06-04T01:11:17;2.60;;;1.37;;
11238;SDS011;5677;48.488;13.436;2023-06-04T01:13:44;2.10;;;1.47;;
11238;SDS011;5677;48.488;13.436;2023-06-04T01:16:11;2.77;;;1.40;;
11238;SDS011;5677;48.488;13.436;2023-06-04T01:18:39;1.93;;;1.70;;
11238;SDS011;5677;48.488;13.436;2023-06-04T01:21:09;1.87;;;1.47;;
11238;SDS011;5677;48.488;13.436;2023-06-04T01:23:40;1.60;;;1.40;;
11238;SDS011;5677;48.488;13.436;2023-06-04T01:26:11;2.77;;;1.77;;
11238;SDS011;5677;48.488;13.436;2023-06-04T01:28:40;1.50;;;1.20;;
11238;SDS011;5677;48.488;13.436;2023-06-04T01:31:08;2.17;;;1.67;;
11238;SDS011;5677;48.488;13.436;2023-06-04T01:33:35;1.43;;;1.23;;
11238;SDS011;5677;48.488;13.436;2023-06-04T01:36:02;1.97;;;1.57;;
11238;SDS011;5677;48.488;13.436;2023-06-04T01:38:31;2.10;;;1.50;;
11238;SDS011;5677;48.488;13.436;2023-06-04T01:40:57;1.83;;;1.47;;
11238;SDS011;5677;48.488;13.436;2023-06-04T01:43:26;2.27;;;1.47;;
11238;SDS011;5677;48.488;13.436;2023-06-04T01:45:54;1.60;;;1.50;;
11238;SDS011;5677;48.488;13.436;2023-06-04T01:48:21;1.67;;;1.20;;
11238;SDS011;5677;48.488;13.436;2023-06-04T01:50:48;1.80;;;1.60;;
11238;SDS011;5677;48.488;13.436;2023-06-04T01:53:15;1.47;;;1.10;;
11238;SDS011;5677;48.488;13.436;2023-06-04T01:55:42;2.60;;;1.40;;
11238;SDS011;5677;48.488;13.436;2023-06-04T01:58:09;1.57;;;1.47;;
11238;SDS011;5677;48.488;13.436;2023-06-04T02:00:36;2.70;;;1.77;;
11238;SDS011;5677;48.488;13.436;2023-06-04T02:03:04;2.57;;;1.60;;
11238;SDS011;5677;48.488;13.436;2023-06-04T02:05:31;4.60;;;1.60;;
11238;SDS011;5677;48.488;13.436;2023-06-04T02:07:58;2.00;;;1.43;;
11238;SDS011;5677;48.488;13.436;2023-06-04T02:10:26;1.97;;;1.50;;
11238;SDS011;5677;48.488;13.436;2023-06-04T02:12:54;1.70;;;1.60;;
11238;SDS011;5677;48.488;13.436;2023-06-04T02:15:23;2.43;;;1.53;;
11238;SDS011;5677;48.488;13.436;2023-06-04T02:17:50;2.77;;;1.43;;
11238;SDS011;5677;48.488;13.436;2023-06-04T02:20:21;2.20;;;1.10;;
11238;SDS011;5677;48.488;13.436;2023-06-04T02:22:48;2.23;;;1.60;;
11238;SDS011;5677;48.488;13.436;2023-06-04T02:25:15;3.07;;;1.30;;
11238;SDS011;5677;48.488;13.436;2023-06-04T02:27:41;2.07;;;1.40;;
11238;SDS011;5677;48.488;13.436;2023-06-04T02:30:09;1.53;;;1.30;;
11238;SDS011;5677;48.488;13.436;2023-06-04T02:32:36;3.43;;;1.60;;
11238;SDS011;5677;48.488;13.436;2023-06-04T02:35:04;1.83;;;1.40;;
11238;SDS011;5677;48.488;13.436;2023-06-04T02:37:33;3.50;;;1.50;;
11238;SDS011;5677;48.488;13.436;2023-06-04T02:40:00;2.90;;;1.40;;
11238;SDS011;5677;48.488;13.436;2023-06-04T02:42:26;2.20;;;1.40;;
11238;SDS011;5677;48.488;13.436;2023-06-04T02:44:53;2.63;;;1.50;;
11238;SDS011;5677;48.488;13.436;2023-06-04T02:47:20;2.27;;;1.50;;
11238;SDS011;5677;48.488;13.436;2023-06-04T02:49:46;1.47;;;1.37;;
11238;SDS011;5677;48.488;13.436;2023-06-04T02:52:13;1.40;;;1.30;;
11238;SDS011;5677;48.488;13.436;2023-06-04T02:54:41;2.33;;;1.47;;
11238;SDS011;5677;48.488;13.436;2023-06-04T02:57:08;2.57;;;1.37;;
11238;SDS011;5677;48.488;13.436;2023-06-04T02:59:35;2.57;;;1.60;;
11238;SDS011;5677;48.488;13.436;2023-06-04T03:02:03;2.70;;;1.40;;
11238;SDS011;5677;48.488;13.436;2023-06-04T03:04:30;2.20;;;1.50;;
11238;SDS011;5677;48.488;13.436;2023-06-04T03:06:59;1.43;;;1.20;;
11238;SDS011;5677;48.488;13.436;2023-06-04T03:09:27;1.90;;;1.50;;
11238;SDS011;5677;48.488;13.436;2023-06-04T03:11:56;1.47;;;1.27;;
11238;SDS011;5677;48.488;13.436;2023-06-04T03:14:25;1.60;;;1.50;;
11238;SDS011;5677;48.488;13.436;2023-06-04T03:16:57;2.07;;;1.30;;
11238;SDS011;5677;48.488;13.436;2023-06-04T03:19:26;3.10;;;1.50;;
11238;SDS011;5677;48.488;13.436;2023-06-04T03:21:52;2.27;;;1.60;;
11238;SDS011;5677;48.488;13.436;2023-06-04T03:24:19;2.00;;;1.43;;
11238;SDS011;5677;48.488;13.436;2023-06-04T03:26:46;1.50;;;1.30;;
11238;SDS011;5677;48.488;13.436;2023-06-04T03:29:14;2.13;;;1.50;;
11238;SDS011;5677;48.488;13.436;2023-06-04T03:31:43;3.57;;;1.80;;
11238;SDS011;5677;48.488;13.436;2023-06-04T03:34:10;3.07;;;1.40;;
11238;SDS011;5677;48.488;13.436;2023-06-04T03:36:37;1.93;;;1.60;;
11238;SDS011;5677;48.488;13.436;2023-06-04T03:39:04;1.43;;;1.30;;
11238;SDS011;5677;48.488;13.436;2023-06-04T03:41:31;1.67;;;1.40;;
11238;SDS011;5677;48.488;13.436;2023-06-04T03:43:58;2.17;;;1.40;;
11238;SDS011;5677;48.488;13.436;2023-06-04T03:46:26;1.90;;;1.70;;
11238;SDS011;5677;48.488;13.436;2023-06-04T03:48:56;1.70;;;1.60;;
11238;SDS011;5677;48.488;13.436;2023-06-04T03:51:23;2.93;;;1.20;;
11238;SDS011;5677;48.488;13.436;2023-06-04T03:53:50;2.03;;;1.47;;
11238;SDS011;5677;48.488;13.436;2023-06-04T03:56:17;1.60;;;1.50;;
11238;SDS011;5677;48.488;13.436;2023-06-04T03:58:44;2.93;;;1.50;;
11238;SDS011;5677;48.488;13.436;2023-06-04T04:01:11;1.83;;;1.43;;
11238;SDS011;5677;48.488;13.436;2023-06-04T04:03:39;1.90;;;1.50;;
11238;SDS011;5677;48.488;13.436;2023-06-04T04:06:09;1.60;;;1.30;;
11238;SDS011;5677;48.488;13.436;2023-06-04T04:08:36;2.37;;;1.50;;
11238;SDS011;5677;48.488;13.436;2023-06-04T04:11:07;2.00;;;1.43;;
11238;SDS011;5677;48.488;13.436;2023-06-04T04:13:33;3.97;;;1.60;;
11238;SDS011;5677;48.488;13.436;2023-06-04T04:16:00;1.93;;;1.50;;
11238;SDS011;5677;48.488;13.436;2023-06-04T04:18:27;1.87;;;1.23;;
11238;SDS011;5677;48.488;13.436;2023-06-04T04:20:55;2.10;;;1.27;;
11238;SDS011;5677;48.488;13.436;2023-06-04T04:23:22;1.40;;;1.30;;
11238;SDS011;5677;48.488;13.436;2023-06-04T04:25:50;1.63;;;1.50;;
11238;SDS011;5677;48.488;13.436;2023-06-04T04:28:16;2.10;;;1.50;;
11238;SDS011;5677;48.488;13.436;2023-06-04T04:30:44;2.43;;;1.43;;
11238;SDS011;5677;48.488;13.436;2023-06-04T04:33:12;2.10;;;1.20;;
11238;SDS011;5677;48.488;13.436;2023-06-04T04:35:40;3.03;;;1.50;;
11238;SDS011;5677;48.488;13.436;2023-06-04T04:38:11;1.13;;;1.00;;
11238;SDS011;5677;48.488;13.436;2023-06-04T04:40:38;1.40;;;1.30;;
11238;SDS011;5677;48.488;13.436;2023-06-04T04:43:05;1.63;;;1.47;;
11238;SDS011;5677;48.488;13.436;2023-06-04T04:45:32;1.33;;;1.20;;
11238;SDS011;5677;48.488;13.436;2023-06-04T04:47:58;1.53;;;1.40;;
11238;SDS011;5677;48.488;13.436;2023-06-04T04:50:25;2.70;;;1.30;;
11238;SDS011;5677;48.488;13.436;2023-06-04T04:52:52;1.30;;;1.20;;
11238;SDS011;5677;48.488;13.436;2023-06-04T04:55:20;1.77;;;1.17;;
11238;SDS011;5677;48.488;13.436;2023-06-04T04:57:47;1.40;;;1.30;;
11238;SDS011;5677;48.488;13.436;2023-06-04T05:00:14;1.30;;;1.20;;
11238;SDS011;5677;48.488;13.436;2023-06-04T05:02:42;2.70;;;1.63;;
11238;SDS011;5677;48.488;13.436;2023-06-04T05:05:09;2.60;;;1.47;;
11238;SDS011;5677;48.488;13.436;2023-06-04T05:07:36;1.47;;;1.20;;
11238;SDS011;5677;48.488;13.436;2023-06-04T05:10:03;2.50;;;1.30;;
11238;SDS011;5677;48.488;13.436;2023-06-04T05:12:31;1.53;;;1.30;;
11238;SDS011;5677;48.488;13.436;2023-06-04T05:14:58;2.60;;;1.40;;
11238;SDS011;5677;48.488;13.436;2023-06-04T05:17:24;2.53;;;1.30;;
11238;SDS011;5677;48.488;13.436;2023-06-04T05:19:55;2.53;;;1.30;;
11238;SDS011;5677;48.488;13.436;2023-06-04T05:22:30;1.47;;;1.20;;
11238;SDS011;5677;48.488;13.436;2023-06-04T05:24:58;2.20;;;1.33;;
11238;SDS011;5677;48.488;13.436;2023-06-04T05:27:25;1.80;;;1.10;;
11238;SDS011;5677;48.488;13.436;2023-06-04T05:29:54;1.40;;;1.30;;
11238;SDS011;5677;48.488;13.436;2023-06-04T05:32:21;1.83;;;1.33;;
11238;SDS011;5677;48.488;13.436;2023-06-04T05:34:48;1.50;;;1.30;;
11238;SDS011;5677;48.488;13.436;2023-06-04T05:37:15;2.47;;;1.30;;
11238;SDS011;5677;48.488;13.436;2023-06-04T05:39:42;2.10;;;1.30;;
11238;SDS011;5677;48.488;13.436;2023-06-04T05:42:09;1.37;;;1.27;;
11238;SDS011;5677;48.488;13.436;2023-06-04T05:44:35;1.40;;;1.30;;
11238;SDS011;5677;48.488;13.436;2023-06-04T05:47:04;1.30;;;1.23;;
11238;SDS011;5677;48.488;13.436;2023-06-04T05:49:31;2.00;;;1.33;;
11238;SDS011;5677;48.488;13.436;2023-06-04T05:52:00;1.37;;;1.20;;
11238;SDS011;5677;48.488;13.436;2023-06-04T05:54:28;1.23;;;1.13;;
11238;SDS011;5677;48.488;13.436;2023-06-04T05:56:55;1.40;;;1.17;;
11238;SDS011;5677;48.488;13.436;2023-06-04T05:59:22;2.47;;;1.40;;
11238;SDS011;5677;48.488;13.436;2023-06-04T06:01:48;1.90;;;1.47;;
11238;SDS011;5677;48.488;13.436;2023-06-04T06:04:17;3.03;;;1.60;;
11238;SDS011;5677;48.488;13.436;2023-06-04T06:06:43;2.10;;;1.27;;
11238;SDS011;5677;48.488;13.436;2023-06-04T06:09:12;2.03;;;1.17;;
11238;SDS011;5677;48.488;13.436;2023-06-04T06:11:39;1.63;;;1.40;;
11238;SDS011;5677;48.488;13.436;2023-06-04T06:14:06;2.63;;;1.50;;
11238;SDS011;5677;48.488;13.436;2023-06-04T06:16:33;1.57;;;1.20;;
11238;SDS011;5677;48.488;13.436;2023-06-04T06:19:00;1.53;;;1.20;;
11238;SDS011;5677;48.488;13.436;2023-06-04T06:21:28;2.30;;;1.40;;
11238;SDS011;5677;48.488;13.436;2023-06-04T06:23:55;2.33;;;1.43;;
11238;SDS011;5677;48.488;13.436;2023-06-04T06:26:21;1.47;;;1.10;;
11238;SDS011;5677;48.488;13.436;2023-06-04T06:28:49;1.80;;;1.40;;
11238;SDS011;5677;48.488;13.436;2023-06-04T06:31:16;2.00;;;1.27;;
11238;SDS011;5677;48.488;13.436;2023-06-04T06:33:42;1.47;;;1.27;;
11238;SDS011;5677;48.488;13.436;2023-06-04T06:36:09;1.27;;;1.20;;
11238;SDS011;5677;48.488;13.436;2023-06-04T06:38:39;2.83;;;1.23;;
11238;SDS011;5677;48.488;13.436;2023-06-04T06:41:06;2.03;;;1.13;;
11238;SDS011;5677;48.488;13.436;2023-06-04T06:43:35;2.17;;;1.80;;
11238;SDS011;5677;48.488;13.436;2023-06-04T06:46:01;2.87;;;2.10;;
11238;SDS011;5677;48.488;13.436;2023-06-04T06:48:28;2.93;;;1.90;;
11238;SDS011;5677;48.488;13.436;2023-06-04T06:50:55;5.47;;;2.00;;
11238;SDS011;5677;48.488;13.436;2023-06-04T06:53:21;3.07;;;2.10;;
11238;SDS011;5677;48.488;13.436;2023-06-04T06:55:50;3.57;;;2.00;;
11238;SDS011;5677;48.488;13.436;2023-06-04T06:58:16;4.47;;;2.40;;
11238;SDS011;5677;48.488;13.436;2023-06-04T07:00:43;3.80;;;2.03;;
11238;SDS011;5677;48.488;13.436;2023-06-04T07:03:10;3.60;;;1.87;;
11238;SDS011;5677;48.488;13.436;2023-06-04T07:05:36;3.67;;;2.00;;
11238;SDS011;5677;48.488;13.436;2023-06-04T07:08:03;3.87;;;2.30;;
11238;SDS011;5677;48.488;13.436;2023-06-04T07:10:30;2.03;;;1.70;;
11238;SDS011;5677;48.488;13.436;2023-06-04T07:12:58;3.73;;;1.80;;
11238;SDS011;5677;48.488;13.436;2023-06-04T07:15:25;2.87;;;2.00;;
11238;SDS011;5677;48.488;13.436;2023-06-04T07:17:52;2.27;;;1.87;;
11238;SDS011;5677;48.488;13.436;2023-06-04T07:20:18;2.63;;;1.90;;
11238;SDS011;5677;48.488;13.436;2023-06-04T07:22:45;3.23;;;2.17;;
11238;SDS011;5677;48.488;13.436;2023-06-04T07:25:12;3.70;;;2.20;;
11238;SDS011;5677;48.488;13.436;2023-06-04T07:27:39;4.70;;;1.90;;
11238;SDS011;5677;48.488;13.436;2023-06-04T07:30:08;2.70;;;1.90;;
11238;SDS011;5677;48.488;13.436;2023-06-04T07:32:36;2.80;;;2.03;;
11238;SDS011;5677;48.488;13.436;2023-06-04T07:35:02;4.47;;;2.53;;
11238;SDS011;5677;48.488;13.436;2023-06-04T07:37:30;2.80;;;1.93;;
11238;SDS011;5677;48.488;13.436;2023-06-04T07:39:56;5.20;;;2.07;;
11238;SDS011;5677;48.488;13.436;2023-06-04T07:42:23;3.00;;;2.07;;
11238;SDS011;5677;48.488;13.436;2023-06-04T07:44:50;4.10;;;2.27;;
11238;SDS011;5677;48.488;13.436;2023-06-04T07:47:18;5.30;;;2.50;;
11238;SDS011;5677;48.488;13.436;2023-06-04T07:49:45;11.00;;;3.07;;
11238;SDS011;5677;48.488;13.436;2023-06-04T07:52:11;6.00;;;2.13;;
11238;SDS011;5677;48.488;13.436;2023-06-04T07:54:39;5.30;;;2.20;;
11238;SDS011;5677;48.488;13.436;2023-06-04T07:57:07;9.10;;;2.27;;
11238;SDS011;5677;48.488;13.436;2023-06-04T07:59:34;6.00;;;2.20;;
11238;SDS011;5677;48.488;13.436;2023-06-04T08:02:00;7.97;;;2.30;;
11238;SDS011;5677;48.488;13.436;2023-06-04T08:04:28;5.00;;;2.47;;
11238;SDS011;5677;48.488;13.436;2023-06-04T08:06:56;4.97;;;2.60;;
11238;SDS011;5677;48.488;13.436;2023-06-04T08:09:23;9.50;;;2.33;;
11238;SDS011;5677;48.488;13.436;2023-06-04T08:11:49;7.33;;;2.40;;
11238;SDS011;5677;48.488;13.436;2023-06-04T08:14:17;7.07;;;2.30;;
11238;SDS011;5677;48.488;13.436;2023-06-04T08:16:46;2.70;;;2.10;;
11238;SDS011;5677;48.488;13.436;2023-06-04T08:19:13;7.50;;;2.63;;
11238;SDS011;5677;48.488;13.436;2023-06-04T08:21:42;5.60;;;2.30;;
11238;SDS011;5677;48.488;13.436;2023-06-04T08:24:10;7.77;;;2.47;;
11238;SDS011;5677;48.488;13.436;2023-06-04T08:26:36;6.60;;;2.50;;
11238;SDS011;5677;48.488;13.436;2023-06-04T08:29:03;3.90;;;2.03;;
11238;SDS011;5677;48.488;13.436;2023-06-04T08:31:30;3.20;;;1.83;;
11238;SDS011;5677;48.488;13.436;2023-06-04T08:33:57;5.73;;;2.13;;
11238;SDS011;5677;48.488;13.436;2023-06-04T08:36:24;5.33;;;2.60;;
11238;SDS011;5677;48.488;13.436;2023-06-04T08:38:52;4.70;;;2.10;;
11238;SDS011;5677;48.488;13.436;2023-06-04T08:41:20;4.83;;;2.33;;
11238;SDS011;5677;48.488;13.436;2023-06-04T08:43:54;7.67;;;2.20;;
11238;SDS011;5677;48.488;13.436;2023-06-04T08:46:22;5.57;;;2.57;;
11238;SDS011;5677;48.488;13.436;2023-06-04T08:48:50;6.20;;;2.50;;
11238;SDS011;5677;48.488;13.436;2023-06-04T08:51:16;7.43;;;2.40;;
11238;SDS011;5677;48.488;13.436;2023-06-04T08:53:43;7.87;;;2.47;;
11238;SDS011;5677;48.488;13.436;2023-06-04T08:56:14;4.33;;;2.03;;
11238;SDS011;5677;48.488;13.436;2023-06-04T08:58:42;4.30;;;2.17;;
11238;SDS011;5677;48.488;13.436;2023-06-04T09:01:10;8.23;;;2.50;;
11238;SDS011;5677;48.488;13.436;2023-06-04T09:03:37;5.33;;;2.03;;
11238;SDS011;5677;48.488;13.436;2023-06-04T09:06:04;6.20;;;2.17;;
11238;SDS011;5677;48.488;13.436;2023-06-04T09:08:32;6.97;;;2.23;;
11238;SDS011;5677;48.488;13.436;2023-06-04T09:11:01;6.33;;;2.50;;
11238;SDS011;5677;48.488;13.436;2023-06-04T09:13:33;4.73;;;2.33;;
11238;SDS011;5677;48.488;13.436;2023-06-04T09:16:02;3.83;;;2.23;;
11238;SDS011;5677;48.488;13.436;2023-06-04T09:18:29;4.50;;;2.27;;
11238;SDS011;5677;48.488;13.436;2023-06-04T09:21:02;8.33;;;2.73;;
11238;SDS011;5677;48.488;13.436;2023-06-04T09:23:30;6.47;;;2.90;;
11238;SDS011;5677;48.488;13.436;2023-06-04T09:26:05;6.60;;;2.40;;
11238;SDS011;5677;48.488;13.436;2023-06-04T09:28:34;6.13;;;2.60;;
11238;SDS011;5677;48.488;13.436;2023-06-04T09:31:01;3.77;;;2.07;;
11238;SDS011;5677;48.488;13.436;2023-06-04T09:33:28;5.10;;;2.13;;
11238;SDS011;5677;48.488;13.436;2023-06-04T09:35:55;5.13;;;2.40;;
11238;SDS011;5677;48.488;13.436;2023-06-04T09:38:22;4.03;;;2.23;;
11238;SDS011;5677;48.488;13.436;2023-06-04T09:40:49;4.20;;;2.47;;
11238;SDS011;5677;48.488;13.436;2023-06-04T09:43:22;5.83;;;2.10;;
11238;SDS011;5677;48.488;13.436;2023-06-04T09:45:51;5.37;;;2.37;;
11238;SDS011;5677;48.488;13.436;2023-06-04T09:48:20;5.47;;;2.27;;
11238;SDS011;5677;48.488;13.436;2023-06-04T09:50:48;2.60;;;2.10;;
11238;SDS011;5677;48.488;13.436;2023-06-04T09:53:14;4.53;;;2.27;;
11238;SDS011;5677;48.488;13.436;2023-06-04T09:55:42;5.73;;;2.00;;
11238;SDS011;5677;48.488;13.436;2023-06-04T09:58:10;4.47;;;2.20;;
11238;SDS011;5677;48.488;13.436;2023-06-04T10:00:38;5.87;;;2.30;;
11238;SDS011;5677;48.488;13.436;2023-06-04T10:03:07;5.43;;;2.70;;
11238;SDS011;5677;48.488;13.436;2023-06-04T10:05:38;4.87;;;2.40;;
11238;SDS011;5677;48.488;13.436;2023-06-04T10:08:05;3.97;;;2.20;;
11238;SDS011;5677;48.488;13.436;2023-06-04T10:10:34;5.13;;;2.50;;
11238;SDS011;5677;48.488;13.436;2023-06-04T10:13:04;3.30;;;2.27;;
11238;SDS011;5677;48.488;13.436;2023-06-04T10:15:33;3.47;;;2.40;;
11238;SDS011;5677;48.488;13.436;2023-06-04T10:18:02;3.37;;;2.50;;
11238;SDS011;5677;48.488;13.436;2023-06-04T10:20:31;4.17;;;2.30;;
11238;SDS011;5677;48.488;13.436;2023-06-04T10:22:58;3.00;;;2.07;;
11238;SDS011;5677;48.488;13.436;2023-06-04T10:25:26;4.87;;;2.50;;
11238;SDS011;5677;48.488;13.436;2023-06-04T10:27:55;3.53;;;2.07;;
11238;SDS011;5677;48.488;13.436;2023-06-04T10:30:23;11.13;;;3.27;;
11238;SDS011;5677;48.488;13.436;2023-06-04T10:32:50;4.90;;;2.40;;
11238;SDS011;5677;48.488;13.436;2023-06-04T10:35:17;3.50;;;2.13;;
11238;SDS011;5677;48.488;13.436;2023-06-04T10:37:45;3.23;;;2.00;;
11238;SDS011;5677;48.488;13.436;2023-06-04T10:40:13;4.50;;;2.40;;
11238;SDS011;5677;48.488;13.436;2023-06-04T10:42:41;5.70;;;2.07;;
11238;SDS011;5677;48.488;13.436;2023-06-04T10:45:08;2.73;;;1.90;;
11238;SDS011;5677;48.488;13.436;2023-06-04T10:47:37;4.97;;;2.90;;
11238;SDS011;5677;48.488;13.436;2023-06-04T10:50:07;5.37;;;2.60;;
11238;SDS011;5677;48.488;13.436;2023-06-04T10:52:35;3.77;;;2.40;;
11238;SDS011;5677;48.488;13.436;2023-06-04T10:55:04;4.07;;;2.30;;
11238;SDS011;5677;48.488;13.436;2023-06-04T10:57:34;4.30;;;2.00;;
11238;SDS011;5677;48.488;13.436;2023-06-04T11:00:01;3.30;;;2.07;;
11238;SDS011;5677;48.488;13.436;2023-06-04T11:02:31;2.47;;;2.20;;
11238;SDS011;5677;48.488;13.436;2023-06-04T11:04:58;3.63;;;2.13;;
11238;SDS011;5677;48.488;13.436;2023-06-04T11:07:28;6.17;;;2.43;;
11238;SDS011;5677;48.488;13.436;2023-06-04T11:09:55;4.30;;;2.33;;
11238;SDS011;5677;48.488;13.436;2023-06-04T11:12:23;4.03;;;2.37;;
11238;SDS011;5677;48.488;13.436;2023-06-04T11:14:53;4.40;;;2.27;;
11238;SDS011;5677;48.488;13.436;2023-06-04T11:17:21;4.23;;;2.40;;
11238;SDS011;5677;48.488;13.436;2023-06-04T11:19:48;3.00;;;2.20;;
11238;SDS011;5677;48.488;13.436;2023-06-04T11:22:14;2.60;;;2.27;;
11238;SDS011;5677;48.488;13.436;2023-06-04T11:24:41;3.17;;;2.20;;
11238;SDS011;5677;48.488;13.436;2023-06-04T11:27:08;3.73;;;2.37;;
11238;SDS011;5677;48.488;13.436;2023-06-04T11:29:36;5.13;;;2.37;;
11238;SDS011;5677;48.488;13.436;2023-06-04T11:32:03;3.50;;;2.30;;
11238;SDS011;5677;48.488;13.436;2023-06-04T11:34:30;5.97;;;2.70;;
11238;SDS011;5677;48.488;13.436;2023-06-04T11:37:07;2.37;;;2.07;;
11238;SDS011;5677;48.488;13.436;2023-06-04T11:39:34;2.87;;;2.13;;
11238;SDS011;5677;48.488;13.436;2023-06-04T11:42:04;5.43;;;2.40;;
11238;SDS011;5677;48.488;13.436;2023-06-04T11:44:31;2.53;;;2.10;;
11238;SDS011;5677;48.488;13.436;2023-06-04T11:46:59;2.77;;;2.40;;
11238;SDS011;5677;48.488;13.436;2023-06-04T11:49:26;3.30;;;2.30;;
11238;SDS011;5677;48.488;13.436;2023-06-04T11:51:54;3.27;;;2.30;;
11238;SDS011;5677;48.488;13.436;2023-06-04T11:54:21;5.47;;;2.73;;
11238;SDS011;5677;48.488;13.436;2023-06-04T11:56:48;5.50;;;2.83;;
11238;SDS011;5677;48.488;13.436;2023-06-04T11:59:17;4.43;;;2.77;;
11238;SDS011;5677;48.488;13.436;2023-06-04T12:01:45;3.70;;;2.20;;
11238;SDS011;5677;48.488;13.436;2023-06-04T12:04:15;3.87;;;2.30;;
11238;SDS011;5677;48.488;13.436;2023-06-04T12:06:52;3.60;;;2.10;;
11238;SDS011;5677;48.488;13.436;2023-06-04T12:09:20;4.47;;;2.60;;
11238;SDS011;5677;48.488;13.436;2023-06-04T12:11:47;2.83;;;2.37;;
11238;SDS011;5677;48.488;13.436;2023-06-04T12:14:15;4.50;;;2.40;;
11238;SDS011;5677;48.488;13.436;2023-06-04T12:16:43;3.07;;;2.10;;
11238;SDS011;5677;48.488;13.436;2023-06-04T12:19:21;2.80;;;2.07;;
11238;SDS011;5677;48.488;13.436;2023-06-04T12:21:58;4.03;;;2.03;;
11238;SDS011;5677;48.488;13.436;2023-06-04T12:24:26;2.40;;;2.20;;
11238;SDS011;5677;48.488;13.436;2023-06-04T12:27:00;3.73;;;2.27;;
11238;SDS011;5677;48.488;13.436;2023-06-04T12:29:28;3.77;;;2.43;;
11238;SDS011;5677;48.488;13.436;2023-06-04T12:32:01;3.20;;;2.43;;
11238;SDS011;5677;48.488;13.436;2023-06-04T12:34:31;4.30;;;2.40;;
11238;SDS011;5677;48.488;13.436;2023-06-04T12:36:58;3.63;;;2.33;;
11238;SDS011;5677;48.488;13.436;2023-06-04T12:39:25;3.13;;;2.40;;
11238;SDS011;5677;48.488;13.436;2023-06-04T12:41:52;5.27;;;1.93;;
11238;SDS011;5677;48.488;13.436;2023-06-04T12:44:18;3.60;;;2.20;;
11238;SDS011;5677;48.488;13.436;2023-06-04T12:46:46;4.03;;;2.23;;
11238;SDS011;5677;48.488;13.436;2023-06-04T12:49:13;2.53;;;2.27;;
11238;SDS011;5677;48.488;13.436;2023-06-04T12:51:41;2.97;;;2.30;;
11238;SDS011;5677;48.488;13.436;2023-06-04T12:54:08;5.53;;;2.60;;
11238;SDS011;5677;48.488;13.436;2023-06-04T12:56:35;6.53;;;2.67;;
11238;SDS011;5677;48.488;13.436;2023-06-04T12:59:02;3.13;;;2.20;;
11238;SDS011;5677;48.488;13.436;2023-06-04T13:01:29;4.57;;;2.40;;
11238;SDS011;5677;48.488;13.436;2023-06-04T13:03:55;3.90;;;2.27;;
11238;SDS011;5677;48.488;13.436;2023-06-04T13:06:22;2.70;;;2.30;;
11238;SDS011;5677;48.488;13.436;2023-06-04T13:08:50;3.57;;;2.23;;
11238;SDS011;5677;48.488;13.436;2023-06-04T13:11:17;2.87;;;2.60;;
11238;SDS011;5677;48.488;13.436;2023-06-04T13:13:44;2.57;;;2.30;;
11238;SDS011;5677;48.488;13.436;2023-06-04T13:16:11;4.07;;;2.43;;
11238;SDS011;5677;48.488;13.436;2023-06-04T13:18:37;2.60;;;2.40;;
11238;SDS011;5677;48.488;13.436;2023-06-04T13:21:04;3.63;;;2.37;;
11238;SDS011;5677;48.488;13.436;2023-06-04T13:23:31;4.13;;;2.60;;
11238;SDS011;5677;48.488;13.436;2023-06-04T13:25:59;2.77;;;2.27;;
11238;SDS011;5677;48.488;13.436;2023-06-04T13:28:26;3.40;;;2.40;;
11238;SDS011;5677;48.488;13.436;2023-06-04T13:30:53;3.40;;;2.67;;
11238;SDS011;5677;48.488;13.436;2023-06-04T13:33:19;5.37;;;2.40;;
11238;SDS011;5677;48.488;13.436;2023-06-04T13:35:46;3.43;;;2.37;;
11238;SDS011;5677;48.488;13.436;2023-06-04T13:38:13;2.83;;;2.33;;
11238;SDS011;5677;48.488;13.436;2023-06-04T13:40:40;3.00;;;2.47;;
11238;SDS011;5677;48.488;13.436;2023-06-04T13:43:09;2.50;;;2.30;;
11238;SDS011;5677;48.488;13.436;2023-06-04T13:45:36;4.00;;;2.53;;
11238;SDS011;5677;48.488;13.436;2023-06-04T13:48:02;4.20;;;2.70;;
11238;SDS011;5677;48.488;13.436;2023-06-04T13:50:32;4.47;;;2.70;;
11238;SDS011;5677;48.488;13.436;2023-06-04T13:52:59;3.00;;;2.60;;
11238;SDS011;5677;48.488;13.436;2023-06-04T13:55:25;4.77;;;2.50;;
11238;SDS011;5677;48.488;13.436;2023-06-04T13:57:52;3.00;;;2.50;;
11238;SDS011;5677;48.488;13.436;2023-06-04T14:00:20;5.00;;;2.57;;
11238;SDS011;5677;48.488;13.436;2023-06-04T14:02:47;3.73;;;2.87;;
11238;SDS011;5677;48.488;13.436;2023-06-04T14:05:15;4.17;;;2.70;;
11238;SDS011;5677;48.488;13.436;2023-06-04T14:07:42;2.90;;;2.53;;
11238;SDS011;5677;48.488;13.436;2023-06-04T14:10:09;4.50;;;2.60;;
11238;SDS011;5677;48.488;13.436;2023-06-04T14:12:36;3.53;;;2.50;;
11238;SDS011;5677;48.488;13.436;2023-06-04T14:15:04;4.70;;;2.80;;
11238;SDS011;5677;48.488;13.436;2023-06-04T14:17:33;3.47;;;2.53;;
11238;SDS011;5677;48.488;13.436;2023-06-04T14:20:00;4.70;;;2.83;;
11238;SDS011;5677;48.488;13.436;2023-06-04T14:22:32;4.53;;;2.70;;
11238;SDS011;5677;48.488;13.436;2023-06-04T14:24:59;4.17;;;2.70;;
11238;SDS011;5677;48.488;13.436;2023-06-04T14:27:26;5.43;;;3.27;;
11238;SDS011;5677;48.488;13.436;2023-06-04T14:29:53;7.03;;;2.90;;
11238;SDS011;5677;48.488;13.436;2023-06-04T14:32:20;7.40;;;2.93;;
11238;SDS011;5677;48.488;13.436;2023-06-04T14:34:48;5.70;;;2.70;;
11238;SDS011;5677;48.488;13.436;2023-06-04T14:37:15;5.90;;;2.87;;
11238;SDS011;5677;48.488;13.436;2023-06-04T14:39:42;4.27;;;2.50;;
11238;SDS011;5677;48.488;13.436;2023-06-04T14:42:09;5.90;;;2.80;;
11238;SDS011;5677;48.488;13.436;2023-06-04T14:44:35;5.03;;;2.60;;
11238;SDS011;5677;48.488;13.436;2023-06-04T14:47:02;6.30;;;2.43;;
11238;SDS011;5677;48.488;13.436;2023-06-04T14:49:29;6.27;;;2.50;;
11238;SDS011;5677;48.488;13.436;2023-06-04T14:51:57;5.70;;;2.87;;